Time;durP1;ratioP1;P1;durP2;ratioP2;P2;SDS_P1;SDS_P2;PMS_P1;PMS_P2;Temp;Humidity;BMP_temperature;BMP_pressure;BME280_temperature;BME280_humidity;BME280_pressure;Samples;Min_cycle;Max_cycle;Signal;HPM_P1;HPM_P2
2022/08/08 00:00:29;;;;;;;2.70;2.50;;;23.10;84.50;;;;;;4992548;28;20019;-53
2022/08/08 00:03:21;;;;;;;3.20;2.90;;;23.10;84.60;;;;;;4987885;28;20023;-54
2022/08/08 00:06:11;;;;;;;3.50;3.00;;;23.10;84.50;;;;;;4993469;28;20038;-54
2022/08/08 00:08:45;;;;;;;2.95;2.38;;;23.10;84.50;;;;;;4981309;28;20359;-53
2022/08/08 00:11:52;;;;;;;3.08;2.78;;;23.10;84.40;;;;;;4992383;28;20037;-54
2022/08/08 00:15:12;;;;;;;3.85;2.88;;;23.10;84.60;;;;;;4983824;28;20122;-55
2022/08/08 00:18:01;;;;;;;3.13;2.83;;;23.10;84.80;;;;;;4946869;28;20415;-54
2022/08/08 00:20:51;;;;;;;2.60;2.40;;;23.10;84.90;;;;;;4982000;28;20034;-54
2022/08/08 00:23:31;;;;;;;2.85;2.65;;;23.10;85.20;;;;;;4979783;28;20023;-54
2022/08/08 00:26:01;;;;;;;2.67;2.33;;;23.00;85.00;;;;;;4993020;28;20382;-53
2022/08/08 00:28:33;;;;;;;3.03;2.70;;;23.00;85.00;;;;;;4992918;28;20026;-54
2022/08/08 00:31:00;;;;;;;3.28;2.97;;;23.00;85.20;;;;;;4992659;28;20757;-55
2022/08/08 00:33:34;;;;;;;3.20;2.90;;;23.00;85.40;;;;;;4987253;28;20470;-53
2022/08/08 00:36:02;;;;;;;2.92;2.70;;;23.00;86.00;;;;;;4991794;28;20033;-55
2022/08/08 00:38:45;;;;;;;2.83;2.58;;;23.00;85.60;;;;;;4983946;28;20066;-54
2022/08/08 00:41:25;;;;;;;3.53;2.72;;;23.00;85.40;;;;;;4981466;28;20533;-54
2022/08/08 00:44:18;;;;;;;3.20;2.78;;;23.00;85.50;;;;;;4993831;28;20026;-53
2022/08/08 00:47:21;;;;;;;4.55;2.50;;;23.00;85.40;;;;;;4997818;28;20069;-54
2022/08/08 00:49:55;;;;;;;2.92;2.63;;;23.00;85.70;;;;;;4989596;28;20032;-53
2022/08/08 00:52:45;;;;;;;2.95;2.72;;;23.00;85.50;;;;;;4991516;28;20038;-53
2022/08/08 00:55:22;;;;;;;2.53;2.33;;;23.00;85.80;;;;;;4991119;28;20023;-54
2022/08/08 00:58:10;;;;;;;2.50;2.30;;;23.00;85.90;;;;;;4984802;28;20066;-54
2022/08/08 01:00:49;;;;;;;2.95;2.70;;;23.00;86.10;;;;;;4992898;28;20015;-54
2022/08/08 01:03:23;;;;;;;3.22;2.88;;;23.00;85.90;;;;;;4989185;28;20105;-54
2022/08/08 01:06:26;;;;;;;2.20;2.00;;;23.00;85.90;;;;;;4989909;28;20026;-54
2022/08/08 01:09:19;;;;;;;3.40;2.90;;;23.00;86.10;;;;;;4989339;28;20034;-54
2022/08/08 01:11:51;;;;;;;2.70;2.50;;;23.00;86.10;;;;;;4992676;28;20042;-54
2022/08/08 01:14:54;;;;;;;2.63;2.28;;;23.00;86.20;;;;;;4992337;28;20047;-53
2022/08/08 01:17:41;;;;;;;2.92;2.40;;;23.00;86.20;;;;;;4991309;28;20038;-54
2022/08/08 01:20:39;;;;;;;3.22;2.60;;;23.00;86.30;;;;;;4992266;28;20029;-54
2022/08/08 01:23:21;;;;;;;3.25;2.80;;;23.00;86.30;;;;;;4995691;28;20499;-54
2022/08/08 01:25:58;;;;;;;3.15;2.70;;;23.00;86.40;;;;;;4993816;28;20019;-55
2022/08/08 01:28:48;;;;;;;2.85;2.65;;;23.00;86.60;;;;;;4996376;28;20034;-55
2022/08/08 01:31:51;;;;;;;2.92;2.67;;;23.00;86.60;;;;;;4982457;28;20475;-54
2022/08/08 01:34:52;;;;;;;2.80;2.60;;;22.90;86.60;;;;;;4984450;28;20053;-54
2022/08/08 01:37:50;;;;;;;;;;;22.90;86.70;;;;;;4991912;28;20544;-55
2022/08/08 01:40:25;;;;;;;2.20;2.00;;;22.90;87.30;;;;;;4960585;28;19936;-54
2022/08/08 01:43:05;;;;;;;2.80;2.55;;;22.90;87.00;;;;;;4994117;28;20033;-54
2022/08/08 01:45:47;;;;;;;2.53;2.33;;;22.90;87.10;;;;;;4997001;28;20023;-55
2022/08/08 01:48:34;;;;;;;3.33;2.85;;;22.80;87.20;;;;;;4988766;28;20030;-53
2022/08/08 01:51:31;;;;;;;3.33;3.03;;;22.80;87.40;;;;;;4995912;28;20378;-54
2022/08/08 01:54:11;;;;;;;3.55;3.15;;;22.80;87.60;;;;;;4995590;28;20032;-54
2022/08/08 01:57:14;;;;;;;3.17;2.60;;;22.80;87.50;;;;;;4995650;28;20022;-54
2022/08/08 01:59:57;;;;;;;3.10;2.80;;;22.80;87.70;;;;;;4985203;28;20478;-54
2022/08/08 02:02:50;;;;;;;3.47;3.00;;;22.80;87.70;;;;;;4993866;28;20014;-54
2022/08/08 02:05:22;;;;;;;3.00;2.70;;;22.70;87.80;;;;;;4995365;28;20045;-53
2022/08/08 02:08:17;;;;;;;3.17;2.88;;;22.70;87.80;;;;;;4995646;28;20046;-54
2022/08/08 02:11:06;;;;;;;2.72;2.50;;;22.70;88.00;;;;;;4962674;28;20041;-53
2022/08/08 02:13:48;;;;;;;3.85;3.10;;;22.70;88.30;;;;;;4994715;28;20042;-54
2022/08/08 02:16:35;;;;;;;4.18;3.35;;;22.70;88.60;;;;;;4990926;28;20089;-54
2022/08/08 02:19:19;;;;;;;3.75;3.30;;;22.70;88.60;;;;;;4994870;28;20101;-53
2022/08/08 02:24:51;;;;;;;3.15;2.85;;;22.70;88.70;;;;;;4995212;28;20029;-54
2022/08/08 02:27:23;;;;;;;3.70;3.05;;;22.60;88.90;;;;;;4995691;28;20390;-53
2022/08/08 02:30:05;;;;;;;3.92;3.50;;;22.60;89.00;;;;;;4993612;28;20393;-54
2022/08/08 02:32:49;;;;;;;4.57;3.70;;;22.60;89.00;;;;;;4991209;28;20054;-53
2022/08/08 02:35:43;;;;;;;3.45;3.15;;;22.60;89.00;;;;;;4985103;28;20030;-54
2022/08/08 02:38:43;;;;;;;3.90;3.50;;;22.50;89.30;;;;;;4981642;28;20498;-53
2022/08/08 02:41:12;;;;;;;3.42;3.13;;;22.50;89.60;;;;;;4992545;28;20121;-54
2022/08/08 02:44:05;;;;;;;3.30;3.00;;;22.50;89.70;;;;;;4994940;28;20029;-54
2022/08/08 02:46:49;;;;;;;3.47;3.17;;;22.50;90.00;;;;;;4983730;28;20073;-54
2022/08/08 02:49:37;;;;;;;3.38;3.08;;;22.50;90.00;;;;;;4992375;28;20026;-54
2022/08/08 02:52:27;;;;;;;4.32;3.25;;;22.50;90.00;;;;;;4994244;28;20037;-55
2022/08/08 02:55:03;;;;;;;4.53;3.40;;;22.50;90.10;;;;;;4987277;28;20022;-53
2022/08/08 02:58:02;;;;;;;4.75;3.60;;;22.50;90.10;;;;;;4994270;28;20403;-54
2022/08/08 03:00:52;;;;;;;3.60;3.13;;;22.40;90.10;;;;;;4993760;28;20105;-53
2022/08/08 03:03:51;;;;;;;3.45;2.97;;;22.40;90.10;;;;;;4992649;28;20034;-54
2022/08/08 03:06:35;;;;;;;4.20;3.40;;;22.40;90.20;;;;;;4987064;28;20038;-54
2022/08/08 03:09:40;;;;;;;3.42;3.00;;;22.40;90.20;;;;;;4993449;28;20037;-54
2022/08/08 03:12:19;;;;;;;3.35;3.05;;;22.40;90.30;;;;;;4994286;28;20030;-54
2022/08/08 03:14:56;;;;;;;3.45;3.15;;;22.40;90.40;;;;;;4993990;28;20525;-54
2022/08/08 03:17:57;;;;;;;3.47;3.15;;;22.40;90.40;;;;;;4987332;28;20035;-54
2022/08/08 03:20:22;;;;;;;3.80;3.22;;;22.40;90.40;;;;;;4950197;28;20089;-54
2022/08/08 03:22:50;;;;;;;3.30;3.00;;;22.40;90.50;;;;;;4994146;28;20034;-53
2022/08/08 03:25:17;;;;;;;3.33;3.03;;;22.40;90.50;;;;;;4993395;28;20033;-54
2022/08/08 03:28:01;;;;;;;3.65;3.30;;;22.40;90.50;;;;;;4994191;28;20101;-53
2022/08/08 03:30:27;;;;;;;3.35;3.03;;;22.40;90.50;;;;;;4987211;28;20030;-53
2022/08/08 03:35:39;;;;;;;3.17;2.78;;;22.40;90.60;;;;;;4988921;28;20061;-53
2022/08/08 03:38:06;;;;;;;3.90;3.00;;;22.40;90.60;;;;;;4993396;28;20065;-53
2022/08/08 03:40:31;;;;;;;3.78;3.05;;;22.40;90.60;;;;;;4994247;28;20019;-53
2022/08/08 03:42:58;;;;;;;3.45;3.10;;;22.40;90.60;;;;;;4993263;28;20526;-54
2022/08/08 03:45:26;;;;;;;3.42;3.13;;;22.40;90.60;;;;;;4995272;28;20552;-54
2022/08/08 03:48:03;;;;;;;3.78;3.30;;;22.40;90.60;;;;;;4992844;28;20101;-54
2022/08/08 03:50:33;;;;;;;3.58;3.28;;;22.40;90.60;;;;;;4993095;28;20026;-54
2022/08/08 03:53:06;;;;;;;3.50;3.10;;;22.40;90.60;;;;;;4981791;28;20022;-54
2022/08/08 03:55:31;;;;;;;3.90;3.38;;;22.40;90.60;;;;;;4993604;28;20037;-54
2022/08/08 03:57:58;;;;;;;3.58;3.08;;;22.40;90.70;;;;;;4993428;28;20030;-53
2022/08/08 04:00:26;;;;;;;3.08;2.78;;;22.40;90.70;;;;;;4992915;28;20076;-53
2022/08/08 04:02:59;;;;;;;3.42;3.00;;;22.40;90.60;;;;;;4993706;28;20033;-54
2022/08/08 04:05:30;;;;;;;3.15;2.90;;;22.40;90.70;;;;;;4993269;28;20019;-54
2022/08/08 04:07:57;;;;;;;3.40;2.80;;;22.40;90.60;;;;;;4992794;28;20121;-53
2022/08/08 04:10:23;;;;;;;3.70;2.95;;;22.40;90.70;;;;;;4993369;28;20537;-54
2022/08/08 04:12:48;;;;;;;3.40;3.08;;;22.40;90.70;;;;;;4993319;28;20130;-54
2022/08/08 04:15:14;;;;;;;3.60;2.97;;;22.40;90.70;;;;;;4991994;28;20080;-54
2022/08/08 04:17:40;;;;;;;3.38;3.08;;;22.40;90.70;;;;;;4992791;28;20043;-54
2022/08/08 04:20:06;;;;;;;4.35;3.42;;;22.40;90.70;;;;;;4993142;28;20077;-54
2022/08/08 04:22:32;;;;;;;2.90;2.60;;;22.40;91.10;;;;;;4992229;28;20023;-55
2022/08/08 04:24:58;;;;;;;3.55;3.03;;;22.40;90.80;;;;;;4993241;28;20026;-53
2022/08/08 04:27:24;;;;;;;3.83;3.10;;;22.40;90.80;;;;;;4993274;28;20057;-54
2022/08/08 04:29:50;;;;;;;3.42;3.10;;;22.40;90.80;;;;;;4993132;28;20043;-54
2022/08/08 04:32:16;;;;;;;4.00;3.47;;;22.40;90.80;;;;;;4993434;28;20040;-54
2022/08/08 04:34:43;;;;;;;4.47;3.17;;;22.40;90.80;;;;;;4992365;28;20389;-53
2022/08/08 04:37:09;;;;;;;3.78;3.22;;;22.50;90.80;;;;;;4993113;28;20442;-54
2022/08/08 04:39:35;;;;;;;3.05;2.75;;;22.50;90.80;;;;;;4992724;28;20018;-53
2022/08/08 04:42:01;;;;;;;3.35;3.05;;;22.50;90.70;;;;;;4992187;28;20055;-54
2022/08/08 04:44:26;;;;;;;4.32;3.40;;;22.50;90.70;;;;;;4994495;28;20026;-53
2022/08/08 04:46:52;;;;;;;4.10;3.20;;;22.50;90.70;;;;;;4985181;28;20038;-54
2022/08/08 04:49:18;;;;;;;3.97;3.47;;;22.50;90.70;;;;;;4991270;28;20057;-55
2022/08/08 04:51:44;;;;;;;3.72;3.15;;;22.50;90.70;;;;;;4983763;28;20035;-55
2022/08/08 04:54:09;;;;;;;3.55;3.20;;;22.50;90.70;;;;;;4984509;28;20077;-53
2022/08/08 04:56:36;;;;;;;3.10;2.80;;;22.50;90.70;;;;;;4990883;28;20030;-55
2022/08/08 04:59:02;;;;;;;3.45;2.92;;;22.50;90.60;;;;;;4989562;28;20026;-54
2022/08/08 05:01:28;;;;;;;4.40;3.38;;;22.50;90.60;;;;;;4984271;28;20539;-54
2022/08/08 05:03:53;;;;;;;3.50;3.20;;;22.60;90.70;;;;;;4981916;28;20022;-54
2022/08/08 05:06:19;;;;;;;4.47;3.80;;;22.50;90.60;;;;;;4991555;28;20457;-54
2022/08/08 05:08:46;;;;;;;3.47;3.17;;;22.60;90.60;;;;;;4990643;28;20030;-54
2022/08/08 05:11:13;;;;;;;3.92;3.50;;;22.60;90.60;;;;;;4987477;28;20030;-53
2022/08/08 05:13:42;;;;;;;4.50;3.85;;;22.60;90.60;;;;;;4988890;28;20084;-54
2022/08/08 05:16:09;;;;;;;3.90;3.50;;;22.60;90.50;;;;;;4991113;28;20391;-54
2022/08/08 05:18:37;;;;;;;3.90;3.42;;;22.60;90.60;;;;;;4991225;28;20117;-54
2022/08/08 05:21:04;;;;;;;4.15;3.50;;;22.60;90.60;;;;;;4992060;28;20518;-54
2022/08/08 05:23:31;;;;;;;3.70;3.30;;;22.60;90.50;;;;;;4990394;28;20030;-54
2022/08/08 05:25:58;;;;;;;3.75;3.28;;;22.60;90.50;;;;;;4985283;28;20058;-54
2022/08/08 05:28:24;;;;;;;3.67;3.25;;;22.60;90.50;;;;;;4990690;28;20054;-55
2022/08/08 05:30:50;;;;;;;4.35;3.95;;;22.60;90.50;;;;;;4992387;28;20062;-54
2022/08/08 05:33:16;;;;;;;4.13;3.58;;;22.60;90.60;;;;;;4989638;28;20439;-54
2022/08/08 05:35:42;;;;;;;3.75;3.17;;;22.50;90.70;;;;;;4990202;28;20030;-54
2022/08/08 05:38:14;;;;;;;4.28;3.85;;;22.50;90.80;;;;;;4992165;28;20041;-54
2022/08/08 05:40:51;;;;;;;4.00;3.25;;;22.50;90.70;;;;;;4991420;28;20080;-54
2022/08/08 05:43:28;;;;;;;4.45;3.22;;;22.50;90.70;;;;;;4990442;28;20370;-54
2022/08/08 05:45:57;;;;;;;3.97;3.42;;;22.50;90.90;;;;;;4993153;28;20018;-54
2022/08/08 05:48:23;;;;;;;3.80;3.17;;;22.50;90.90;;;;;;4990994;28;20034;-54
2022/08/08 05:50:50;;;;;;;4.63;3.85;;;22.50;91.00;;;;;;4990061;28;20040;-52
2022/08/08 05:53:24;;;;;;;4.65;3.83;;;22.50;91.10;;;;;;4984630;28;20034;-55
2022/08/08 05:55:52;;;;;;;4.40;3.63;;;22.50;91.20;;;;;;4985027;28;20490;-54
2022/08/08 05:58:19;;;;;;;3.75;3.33;;;22.50;91.20;;;;;;4983849;28;20030;-56
2022/08/08 06:00:47;;;;;;;3.78;3.38;;;22.50;91.30;;;;;;4986723;28;20379;-54
2022/08/08 06:03:15;;;;;;;4.25;3.47;;;22.50;91.40;;;;;;4983121;28;20401;-53
2022/08/08 06:05:46;;;;;;;4.85;3.78;;;22.50;91.50;;;;;;4978290;28;20050;-56
2022/08/08 06:08:19;;;;;;;4.25;3.53;;;22.50;91.50;;;;;;4982826;28;20029;-55
2022/08/08 06:10:47;;;;;;;4.32;3.92;;;22.60;91.40;;;;;;4984608;28;20038;-55
2022/08/08 06:13:13;;;;;;;4.75;4.03;;;22.50;91.40;;;;;;4982694;28;20110;-55
2022/08/08 06:15:41;;;;;;;4.18;3.65;;;22.60;91.60;;;;;;4980304;28;20088;-53
2022/08/08 06:18:08;;;;;;;5.90;3.83;;;22.60;91.60;;;;;;4980590;28;20494;-56
2022/08/08 06:20:34;;;;;;;4.05;3.60;;;22.60;91.60;;;;;;4976421;28;20034;-55
2022/08/08 06:23:00;;;;;;;4.75;4.07;;;22.60;91.60;;;;;;4972903;28;20035;-54
2022/08/08 06:25:27;;;;;;;4.70;4.18;;;22.70;91.60;;;;;;4982167;28;20022;-55
2022/08/08 06:27:58;;;;;;;4.03;3.50;;;22.70;91.60;;;;;;4983039;28;20027;-54
2022/08/08 06:30:23;;;;;;;;;;;22.70;91.60;;;;;;4986580;28;20117;-55
2022/08/08 06:32:51;;;;;;;3.25;2.90;;;22.70;91.40;;;;;;4976816;28;19910;-56
2022/08/08 06:35:18;;;;;;;4.30;3.85;;;22.70;91.30;;;;;;4980234;28;20042;-54
2022/08/08 06:38:00;;;;;;;4.13;3.63;;;22.80;91.40;;;;;;4985296;28;20046;-54
2022/08/08 06:40:30;;;;;;;4.15;3.17;;;22.80;91.30;;;;;;4983201;28;20899;-54
2022/08/08 06:43:04;;;;;;;4.32;3.53;;;22.80;91.30;;;;;;4985982;28;20117;-55
2022/08/08 06:45:32;;;;;;;4.30;3.67;;;22.80;91.30;;;;;;4982959;28;20027;-55
2022/08/08 06:47:59;;;;;;;4.35;3.78;;;22.80;91.30;;;;;;4989790;28;20044;-56
2022/08/08 06:50:26;;;;;;;4.68;3.80;;;22.80;91.30;;;;;;4983144;28;20038;-55
2022/08/08 06:52:52;;;;;;;3.55;3.25;;;22.80;91.30;;;;;;4981337;28;20031;-56
2022/08/08 06:55:20;;;;;;;4.47;3.65;;;22.90;91.30;;;;;;4979256;28;20042;-55
2022/08/08 06:57:46;;;;;;;4.25;3.50;;;22.90;91.30;;;;;;4977472;28;20034;-55
2022/08/08 07:00:12;;;;;;;3.47;3.17;;;22.90;91.40;;;;;;4971524;28;20113;-55
2022/08/08 07:02:44;;;;;;;4.63;3.92;;;22.90;91.40;;;;;;4973889;28;20093;-55
2022/08/08 07:05:15;;;;;;;5.18;4.03;;;23.00;91.50;;;;;;4971656;28;20149;-56
2022/08/08 07:07:40;;;;;;;3.80;3.40;;;23.00;91.40;;;;;;4967627;28;20062;-56
2022/08/08 07:10:08;;;;;;;4.05;3.40;;;23.00;91.50;;;;;;4966362;28;20701;-56
2022/08/08 07:12:42;;;;;;;4.68;3.95;;;23.00;91.40;;;;;;4974317;28;20105;-55
2022/08/08 07:15:10;;;;;;;4.68;4.00;;;23.10;91.40;;;;;;4952493;28;20065;-55
2022/08/08 07:17:47;;;;;;;3.85;3.40;;;23.10;91.50;;;;;;4965311;28;20042;-53
2022/08/08 07:20:19;;;;;;;4.18;3.40;;;23.20;91.50;;;;;;4965105;28;20026;-54
2022/08/08 07:22:56;;;;;;;5.32;3.88;;;23.30;91.30;;;;;;4964669;28;20037;-53
2022/08/08 07:25:24;;;;;;;4.10;3.60;;;23.30;91.20;;;;;;4966210;28;20113;-54
2022/08/08 07:28:02;;;;;;;4.90;4.18;;;23.40;91.10;;;;;;4969507;28;20038;-55
2022/08/08 07:30:27;;;;;;;4.10;3.60;;;23.40;90.90;;;;;;4973833;28;21039;-57
2022/08/08 07:32:54;;;;;;;4.40;3.67;;;23.50;90.80;;;;;;4973851;28;20042;-55
2022/08/08 07:35:20;;;;;;;5.22;4.35;;;23.50;90.70;;;;;;4971826;28;20081;-52
2022/08/08 07:37:50;;;;;;;4.65;3.85;;;23.50;90.50;;;;;;4975869;28;20069;-56
2022/08/08 07:40:16;;;;;;;3.92;3.53;;;23.50;90.40;;;;;;4971851;28;20026;-52
2022/08/08 07:42:44;;;;;;;5.20;4.65;;;23.60;90.30;;;;;;4968005;28;20070;-53
2022/08/08 07:45:10;;;;;;;4.90;4.07;;;23.50;90.30;;;;;;4967083;28;20744;-52
2022/08/08 07:47:36;;;;;;;3.90;3.42;;;23.60;90.30;;;;;;4975279;28;20038;-56
2022/08/08 07:50:02;;;;;;;4.38;3.80;;;23.50;90.20;;;;;;4960652;28;20045;-55
2022/08/08 07:52:29;;;;;;;4.30;3.65;;;23.60;90.30;;;;;;4975809;28;20025;-54
2022/08/08 07:55:08;;;;;;;4.00;3.33;;;23.60;90.40;;;;;;4973873;28;20030;-55
2022/08/08 07:57:33;;;;;;;4.47;3.50;;;23.60;90.40;;;;;;4976621;28;20441;-53
2022/08/08 08:00:07;;;;;;;4.80;4.10;;;23.60;90.40;;;;;;4962809;28;20030;-54
2022/08/08 08:03:03;;;;;;;4.20;3.60;;;23.60;90.30;;;;;;4966928;28;20035;-54
2022/08/08 08:05:29;;;;;;;4.50;3.97;;;23.60;90.30;;;;;;4964870;28;20038;-54
2022/08/08 08:08:02;;;;;;;4.43;3.67;;;23.60;90.30;;;;;;4972190;28;20040;-55
2022/08/08 08:10:29;;;;;;;4.40;3.88;;;23.70;90.20;;;;;;4972737;28;20048;-55
2022/08/08 08:13:23;;;;;;;4.50;3.70;;;23.70;90.10;;;;;;4974124;28;20467;-56
2022/08/08 08:16:10;;;;;;;4.03;3.40;;;23.70;90.10;;;;;;4929848;28;20031;-55
2022/08/08 08:18:46;;;;;;;4.55;3.95;;;23.70;90.10;;;;;;4928411;28;20039;-54
2022/08/08 08:21:15;;;;;;;4.07;3.65;;;23.70;90.00;;;;;;4927031;28;20035;-56
2022/08/08 08:23:40;;;;;;;3.40;3.10;;;23.80;90.00;;;;;;4934478;28;20031;-55
2022/08/08 08:26:06;;;;;;;4.15;3.75;;;23.90;90.00;;;;;;4942563;28;20032;-55
2022/08/08 08:28:32;;;;;;;4.10;3.67;;;23.90;90.00;;;;;;4932355;28;20035;-53
2022/08/08 08:31:03;;;;;;;4.25;3.45;;;23.90;90.00;;;;;;4933269;28;20650;-56
2022/08/08 08:33:31;;;;;;;4.30;3.88;;;23.90;89.70;;;;;;4930820;28;20043;-56
2022/08/08 08:35:57;;;;;;;4.15;3.75;;;23.90;89.60;;;;;;4929733;28;20167;-53
2022/08/08 08:38:23;;;;;;;4.85;3.83;;;23.90;89.60;;;;;;4923642;28;20071;-55
2022/08/08 08:40:49;;;;;;;3.45;3.15;;;23.90;89.60;;;;;;4936124;28;20039;-54
2022/08/08 08:43:19;;;;;;;4.10;3.67;;;24.00;89.50;;;;;;4925597;28;20066;-54
2022/08/08 08:45:48;;;;;;;3.88;3.38;;;23.90;89.40;;;;;;4936087;28;20023;-54
2022/08/08 08:48:16;;;;;;;3.67;3.25;;;23.90;89.40;;;;;;4931669;28;20432;-55
2022/08/08 08:50:44;;;;;;;4.60;3.83;;;23.90;89.50;;;;;;4935542;28;20507;-54
2022/08/08 08:53:11;;;;;;;4.40;3.65;;;23.90;89.60;;;;;;4931994;28;20027;-54
2022/08/08 08:55:38;;;;;;;3.97;3.42;;;23.90;89.50;;;;;;4921954;28;20067;-54
2022/08/08 08:58:06;;;;;;;3.88;3.47;;;23.90;89.70;;;;;;4921015;28;20451;-56
2022/08/08 09:00:35;;;;;;;3.95;3.47;;;23.90;89.70;;;;;;4923407;28;20046;-55
2022/08/08 09:03:07;;;;;;;4.10;3.70;;;23.90;89.80;;;;;;4931896;28;20069;-55
2022/08/08 09:05:37;;;;;;;4.10;3.60;;;23.90;89.70;;;;;;4928274;28;20078;-54
2022/08/08 09:08:08;;;;;;;4.00;3.42;;;23.90;89.80;;;;;;4927441;28;20039;-55
2022/08/08 09:10:38;;;;;;;4.25;3.58;;;23.90;89.90;;;;;;4926539;28;20063;-55
2022/08/08 09:13:05;;;;;;;5.18;4.28;;;23.90;89.90;;;;;;4936478;28;20592;-55
2022/08/08 09:15:31;;;;;;;3.97;3.58;;;23.90;89.90;;;;;;4928382;28;20051;-53
2022/08/08 09:17:57;;;;;;;5.10;4.10;;;24.00;89.90;;;;;;4931945;28;20526;-55
2022/08/08 09:20:26;;;;;;;3.97;3.58;;;24.00;89.80;;;;;;4931071;28;20027;-55
2022/08/08 09:22:55;;;;;;;4.50;3.88;;;24.00;89.90;;;;;;4922923;28;20042;-55
2022/08/08 09:25:21;;;;;;;4.57;3.95;;;24.00;90.00;;;;;;4928646;28;20042;-54
2022/08/08 09:27:47;;;;;;;4.38;3.90;;;24.00;90.10;;;;;;4926067;28;20039;-55
2022/08/08 09:30:14;;;;;;;4.05;3.63;;;24.00;90.10;;;;;;4927039;28;20050;-56
2022/08/08 09:32:47;;;;;;;5.13;4.38;;;24.00;90.10;;;;;;4930132;28;20046;-55
2022/08/08 09:35:17;;;;;;;5.40;4.22;;;24.10;90.20;;;;;;4926874;28;20043;-55
2022/08/08 09:37:54;;;;;;;4.57;4.05;;;24.10;90.30;;;;;;4930655;28;20035;-56
2022/08/08 09:40:23;;;;;;;4.38;3.97;;;24.10;90.20;;;;;;4929044;28;20426;-54
2022/08/08 09:43:16;;;;;;;4.63;4.15;;;24.20;90.40;;;;;;4936573;28;20055;-54
2022/08/08 09:46:03;;;;;;;4.30;3.85;;;24.20;90.10;;;;;;4933602;28;20130;-56
2022/08/08 09:48:34;;;;;;;4.45;4.05;;;24.20;90.10;;;;;;4931597;28;20042;-55
2022/08/08 09:51:00;;;;;;;;;;;24.30;90.30;;;;;;4923297;28;21486;-56
2022/08/08 09:53:51;;;;;;;4.43;4.00;;;24.30;90.20;;;;;;4924955;28;19918;-54
2022/08/08 09:56:19;;;;;;;5.05;4.55;;;24.40;90.10;;;;;;4933481;28;20121;-55
2022/08/08 09:58:54;;;;;;;4.82;4.32;;;24.50;90.00;;;;;;4948952;28;20082;-53
2022/08/08 10:01:22;;;;;;;4.50;3.97;;;24.50;90.00;;;;;;4930080;28;20113;-55
2022/08/08 10:03:49;;;;;;;5.18;4.45;;;24.60;90.00;;;;;;4937998;28;20035;-55
2022/08/08 10:06:17;;;;;;;4.25;3.83;;;24.70;89.80;;;;;;4939242;28;20019;-55
2022/08/08 10:08:47;;;;;;;4.78;4.13;;;24.70;89.60;;;;;;4935378;28;20031;-52
2022/08/08 10:11:22;;;;;;;5.30;4.25;;;24.70;89.10;;;;;;4937590;28;20070;-55
2022/08/08 10:13:58;;;;;;;4.15;3.75;;;24.80;88.80;;;;;;4948578;28;20536;-56
2022/08/08 10:16:36;;;;;;;4.25;3.80;;;24.80;88.80;;;;;;4977296;28;20340;-53
2022/08/08 10:19:04;;;;;;;4.85;4.20;;;24.80;88.40;;;;;;4975380;28;20034;-54
2022/08/08 10:21:34;;;;;;;4.80;3.90;;;24.90;88.40;;;;;;4986063;28;20030;-55
2022/08/08 10:24:08;;;;;;;4.40;3.67;;;24.90;88.30;;;;;;4982465;28;20435;-56
2022/08/08 10:26:51;;;;;;;4.75;4.13;;;25.00;88.20;;;;;;4981635;28;20041;-53
2022/08/08 10:29:47;;;;;;;4.65;3.85;;;25.00;87.80;;;;;;4979057;28;20559;-55
2022/08/08 10:32:34;;;;;;;4.13;3.72;;;25.00;87.70;;;;;;4976087;28;20097;-55
2022/08/08 10:35:02;;;;;;;3.95;3.55;;;25.10;87.80;;;;;;4975417;28;20042;-55
2022/08/08 10:37:34;;;;;;;4.32;3.80;;;25.20;87.60;;;;;;4971945;28;20112;-55
2022/08/08 10:40:12;;;;;;;4.35;3.80;;;25.20;87.50;;;;;;4977868;28;20554;-56
2022/08/08 10:42:39;;;;;;;5.30;4.45;;;25.30;88.00;;;;;;4973831;28;20039;-55
2022/08/08 10:45:07;;;;;;;4.10;3.70;;;25.40;87.10;;;;;;4963446;28;20506;-56
2022/08/08 10:47:33;;;;;;;4.90;4.35;;;25.40;87.40;;;;;;4975766;28;20391;-56
2022/08/08 10:50:01;;;;;;;4.63;3.90;;;25.40;86.30;;;;;;4971990;28;20054;-55
2022/08/08 10:52:26;;;;;;;4.57;3.80;;;25.50;86.10;;;;;;4977758;28;20556;-55
2022/08/08 10:54:57;;;;;;;4.25;3.85;;;25.60;86.00;;;;;;4971085;28;20034;-55
2022/08/08 10:57:23;;;;;;;4.82;3.90;;;25.60;85.60;;;;;;4967170;28;20039;-56
2022/08/08 10:59:58;;;;;;;4.22;3.63;;;25.60;85.40;;;;;;4968914;28;20045;-54
2022/08/08 11:02:29;;;;;;;4.78;4.28;;;25.70;85.50;;;;;;4966473;28;20070;-54
2022/08/08 11:05:01;;;;;;;4.70;3.97;;;25.70;85.10;;;;;;4968448;28;20037;-53
2022/08/08 11:07:27;;;;;;;4.75;4.20;;;25.70;85.00;;;;;;4976442;28;20363;-54
2022/08/08 11:09:54;;;;;;;4.03;3.60;;;25.80;85.00;;;;;;4972575;28;20033;-55
2022/08/08 11:12:19;;;;;;;4.20;3.80;;;25.80;85.10;;;;;;4972472;28;20092;-57
2022/08/08 11:14:56;;;;;;;4.10;3.70;;;25.80;84.70;;;;;;4973549;28;20062;-54
2022/08/08 11:17:25;;;;;;;4.20;3.63;;;25.80;84.50;;;;;;4971859;28;20046;-55
2022/08/08 11:19:52;;;;;;;4.07;3.65;;;25.80;84.80;;;;;;4976165;28;20109;-55
2022/08/08 11:22:25;;;;;;;4.07;3.50;;;25.80;84.40;;;;;;4961569;28;20038;-56
2022/08/08 11:24:53;;;;;;;5.32;4.15;;;25.80;84.20;;;;;;4970222;28;20545;-57
2022/08/08 11:27:22;;;;;;;4.30;3.90;;;25.80;84.30;;;;;;4968973;28;20065;-57
2022/08/08 11:29:49;;;;;;;4.50;3.78;;;25.80;84.50;;;;;;4973616;28;20109;-56
2022/08/08 11:32:18;;;;;;;3.88;3.47;;;25.80;84.50;;;;;;4973860;28;20116;-57
2022/08/08 11:34:47;;;;;;;4.70;4.03;;;25.80;84.20;;;;;;4968726;28;20093;-56
2022/08/08 11:37:13;;;;;;;3.72;3.38;;;25.80;84.30;;;;;;4964568;28;20776;-54
2022/08/08 11:39:39;;;;;;;4.05;3.65;;;25.80;84.30;;;;;;4968241;28;20117;-54
2022/08/08 11:42:06;;;;;;;4.15;3.67;;;25.90;84.30;;;;;;4967130;28;20065;-55
2022/08/08 11:44:32;;;;;;;3.30;3.00;;;25.90;84.10;;;;;;4971022;28;20026;-56
2022/08/08 11:46:59;;;;;;;3.95;3.55;;;25.80;84.00;;;;;;4967145;28;20049;-54
2022/08/08 11:49:25;;;;;;;4.13;3.60;;;25.80;83.80;;;;;;4978361;28;20109;-55
2022/08/08 11:51:53;;;;;;;4.10;3.50;;;25.80;83.80;;;;;;4970137;28;20026;-56
2022/08/08 11:54:32;;;;;;;4.35;3.95;;;25.80;84.00;;;;;;4979512;28;20405;-54
2022/08/08 11:57:17;;;;;;;4.10;3.70;;;25.80;84.00;;;;;;4971053;28;20026;-54
2022/08/08 11:59:58;;;;;;;3.78;3.33;;;25.80;84.00;;;;;;4966843;28;20026;-53
2022/08/08 12:02:28;;;;;;;4.30;3.90;;;25.70;84.00;;;;;;4971379;28;20524;-56
2022/08/08 12:05:05;;;;;;;4.57;3.90;;;25.60;84.30;;;;;;4970452;28;20022;-55
2022/08/08 12:07:42;;;;;;;3.85;3.42;;;25.60;84.30;;;;;;4975555;28;20038;-57
2022/08/08 12:10:12;;;;;;;5.13;4.10;;;25.60;84.30;;;;;;4971208;28;20104;-57
2022/08/08 12:12:46;;;;;;;3.50;3.15;;;25.60;84.50;;;;;;4963157;28;20695;-55
2022/08/08 12:15:23;;;;;;;4.20;3.70;;;25.60;84.40;;;;;;4970677;28;20058;-55
2022/08/08 12:17:49;;;;;;;3.90;3.50;;;25.60;84.40;;;;;;4974468;28;20034;-55
2022/08/08 12:20:15;;;;;;;3.38;3.08;;;25.50;84.50;;;;;;4966643;28;20034;-56
2022/08/08 12:22:49;;;;;;;3.95;3.55;;;25.50;84.60;;;;;;4961815;28;20034;-55
2022/08/08 12:25:20;;;;;;;3.95;3.55;;;25.50;84.60;;;;;;4964751;28;20698;-55
2022/08/08 12:27:46;;;;;;;3.58;3.00;;;25.50;84.70;;;;;;4964423;28;22016;-56
2022/08/08 12:30:12;;;;;;;3.70;3.40;;;25.50;84.80;;;;;;4962599;28;20092;-55
2022/08/08 12:32:46;;;;;;;4.22;3.78;;;25.50;85.60;;;;;;4971535;28;20701;-55
2022/08/08 12:35:22;;;;;;;3.85;3.45;;;25.50;84.80;;;;;;4965426;28;20046;-57
2022/08/08 12:38:06;;;;;;;4.68;3.72;;;25.50;84.80;;;;;;4963435;28;20090;-55
2022/08/08 12:40:43;;;;;;;3.65;3.35;;;25.50;84.80;;;;;;4967418;28;20493;-56
2022/08/08 12:43:10;;;;;;;3.90;3.50;;;25.50;84.90;;;;;;4975244;28;20117;-56
2022/08/08 12:45:38;;;;;;;4.30;3.70;;;25.50;84.80;;;;;;4969181;28;20031;-56
2022/08/08 12:48:18;;;;;;;3.63;3.33;;;25.50;84.90;;;;;;4969048;28;20587;-57
2022/08/08 12:50:47;;;;;;;4.80;3.45;;;25.50;84.90;;;;;;4965704;28;20035;-54
2022/08/08 12:53:28;;;;;;;3.92;3.28;;;25.50;85.00;;;;;;4965346;28;20447;-56
2022/08/08 12:56:02;;;;;;;3.78;3.30;;;25.50;84.90;;;;;;4958654;28;20033;-56
2022/08/08 12:58:42;;;;;;;4.20;3.80;;;25.50;85.00;;;;;;4971192;28;20037;-56
2022/08/08 13:01:09;;;;;;;3.60;3.28;;;25.50;85.20;;;;;;4964526;28;20026;-55
2022/08/08 13:03:34;;;;;;;3.35;3.05;;;25.50;85.10;;;;;;4966140;28;20050;-56
2022/08/08 13:06:09;;;;;;;3.90;3.50;;;25.50;85.20;;;;;;4964376;28;20027;-55
2022/08/08 13:08:52;;;;;;;4.07;3.67;;;25.50;85.00;;;;;;4968427;28;20026;-55
2022/08/08 13:11:31;;;;;;;4.90;3.28;;;25.60;85.10;;;;;;4968011;28;20034;-58
2022/08/08 13:14:10;;;;;;;3.38;3.08;;;25.50;85.10;;;;;;4969452;28;20502;-56
2022/08/08 13:16:36;;;;;;;3.45;3.15;;;25.60;85.30;;;;;;4966916;28;20148;-55
2022/08/08 13:19:07;;;;;;;3.83;3.28;;;25.60;85.10;;;;;;4976224;28;20046;-56
2022/08/08 13:21:40;;;;;;;3.80;3.50;;;25.60;85.00;;;;;;4974748;28;20115;-57
2022/08/08 13:24:07;;;;;;;4.60;3.30;;;25.60;84.80;;;;;;4972724;28;20116;-55
2022/08/08 13:26:32;;;;;;;3.50;3.20;;;25.60;84.80;;;;;;4974941;28;20037;-55